sensor_id;sensor_type;location;lat;lon;timestamp;P1;durP1;ratioP1;P2;durP2;ratioP2
57800;SDS011;43627;42.728;23.256;2023-02-28T00:00:19;35.63;;;16.83;;
57800;SDS011;43627;42.728;23.256;2023-02-28T00:02:46;35.30;;;16.15;;
57800;SDS011;43627;42.728;23.256;2023-02-28T00:05:14;38.60;;;17.15;;
57800;SDS011;43627;42.728;23.256;2023-02-28T00:07:42;32.13;;;16.95;;
57800;SDS011;43627;42.728;23.256;2023-02-28T00:10:10;34.10;;;16.38;;
57800;SDS011;43627;42.728;23.256;2023-02-28T00:12:39;36.05;;;16.92;;
57800;SDS011;43627;42.728;23.256;2023-02-28T00:15:10;33.30;;;17.02;;
57800;SDS011;43627;42.728;23.256;2023-02-28T00:17:37;44.05;;;19.75;;
57800;SDS011;43627;42.728;23.256;2023-02-28T00:20:04;36.33;;;16.83;;
57800;SDS011;43627;42.728;23.256;2023-02-28T00:22:36;36.00;;;16.17;;
57800;SDS011;43627;42.728;23.256;2023-02-28T00:25:04;39.95;;;16.75;;
57800;SDS011;43627;42.728;23.256;2023-02-28T00:27:33;34.20;;;15.48;;
57800;SDS011;43627;42.728;23.256;2023-02-28T00:30:01;36.60;;;15.23;;
57800;SDS011;43627;42.728;23.256;2023-02-28T00:32:27;29.88;;;15.02;;
57800;SDS011;43627;42.728;23.256;2023-02-28T00:34:54;38.00;;;17.23;;
57800;SDS011;43627;42.728;23.256;2023-02-28T00:37:21;48.08;;;20.80;;
57800;SDS011;43627;42.728;23.256;2023-02-28T00:39:48;38.83;;;16.83;;
57800;SDS011;43627;42.728;23.256;2023-02-28T00:42:15;35.70;;;17.40;;
57800;SDS011;43627;42.728;23.256;2023-02-28T00:44:41;41.13;;;17.27;;
57800;SDS011;43627;42.728;23.256;2023-02-28T00:47:08;38.03;;;18.25;;
57800;SDS011;43627;42.728;23.256;2023-02-28T00:49:35;43.50;;;18.95;;
57800;SDS011;43627;42.728;23.256;2023-02-28T00:52:02;45.40;;;20.58;;
57800;SDS011;43627;42.728;23.256;2023-02-28T00:54:29;43.60;;;18.25;;
57800;SDS011;43627;42.728;23.256;2023-02-28T00:56:55;38.85;;;17.85;;
57800;SDS011;43627;42.728;23.256;2023-02-28T00:59:22;49.85;;;20.42;;
57800;SDS011;43627;42.728;23.256;2023-02-28T01:01:49;52.00;;;21.33;;
57800;SDS011;43627;42.728;23.256;2023-02-28T01:04:15;43.30;;;18.95;;
57800;SDS011;43627;42.728;23.256;2023-02-28T01:06:42;45.40;;;20.02;;
57800;SDS011;43627;42.728;23.256;2023-02-28T01:09:09;41.42;;;18.48;;
57800;SDS011;43627;42.728;23.256;2023-02-28T01:11:36;43.60;;;19.52;;
57800;SDS011;43627;42.728;23.256;2023-02-28T01:14:03;44.88;;;19.58;;
57800;SDS011;43627;42.728;23.256;2023-02-28T01:16:30;48.65;;;20.48;;
57800;SDS011;43627;42.728;23.256;2023-02-28T01:18:57;46.03;;;20.50;;
57800;SDS011;43627;42.728;23.256;2023-02-28T01:21:24;46.47;;;19.83;;
57800;SDS011;43627;42.728;23.256;2023-02-28T01:23:50;38.25;;;19.23;;
57800;SDS011;43627;42.728;23.256;2023-02-28T01:26:19;38.13;;;18.73;;
57800;SDS011;43627;42.728;23.256;2023-02-28T01:28:48;38.03;;;18.67;;
57800;SDS011;43627;42.728;23.256;2023-02-28T01:31:16;42.05;;;18.95;;
57800;SDS011;43627;42.728;23.256;2023-02-28T01:33:44;39.25;;;18.45;;
57800;SDS011;43627;42.728;23.256;2023-02-28T01:38:43;35.72;;;16.80;;
57800;SDS011;43627;42.728;23.256;2023-02-28T01:41:14;39.38;;;17.95;;
57800;SDS011;43627;42.728;23.256;2023-02-28T01:46:13;34.30;;;16.08;;
57800;SDS011;43627;42.728;23.256;2023-02-28T01:48:42;31.58;;;16.27;;
57800;SDS011;43627;42.728;23.256;2023-02-28T01:51:18;39.83;;;16.67;;
57800;SDS011;43627;42.728;23.256;2023-02-28T01:53:51;30.23;;;15.30;;
57800;SDS011;43627;42.728;23.256;2023-02-28T01:56:21;31.80;;;15.57;;
57800;SDS011;43627;42.728;23.256;2023-02-28T01:58:53;33.28;;;15.45;;
57800;SDS011;43627;42.728;23.256;2023-02-28T02:01:20;35.35;;;15.35;;
57800;SDS011;43627;42.728;23.256;2023-02-28T02:03:49;29.50;;;15.30;;
57800;SDS011;43627;42.728;23.256;2023-02-28T02:06:22;33.28;;;16.08;;
57800;SDS011;43627;42.728;23.256;2023-02-28T02:08:55;34.90;;;16.27;;
57800;SDS011;43627;42.728;23.256;2023-02-28T02:11:22;35.22;;;17.80;;
57800;SDS011;43627;42.728;23.256;2023-02-28T02:27:48;37.38;;;17.45;;
57800;SDS011;43627;42.728;23.256;2023-02-28T02:33:21;35.63;;;16.40;;
57800;SDS011;43627;42.728;23.256;2023-02-28T02:38:53;37.72;;;16.73;;
57800;SDS011;43627;42.728;23.256;2023-02-28T02:42:02;43.72;;;18.50;;
57800;SDS011;43627;42.728;23.256;2023-02-28T02:44:26;45.40;;;18.33;;
57800;SDS011;43627;42.728;23.256;2023-02-28T02:46:58;48.38;;;19.90;;
57800;SDS011;43627;42.728;23.256;2023-02-28T02:49:31;46.28;;;18.85;;
57800;SDS011;43627;42.728;23.256;2023-02-28T02:52:02;44.65;;;18.77;;
57800;SDS011;43627;42.728;23.256;2023-02-28T02:57:03;38.30;;;17.73;;
57800;SDS011;43627;42.728;23.256;2023-02-28T02:59:35;45.63;;;21.15;;
57800;SDS011;43627;42.728;23.256;2023-02-28T03:02:04;43.75;;;19.73;;
57800;SDS011;43627;42.728;23.256;2023-02-28T03:04:36;58.00;;;19.65;;
57800;SDS011;43627;42.728;23.256;2023-02-28T03:07:08;44.28;;;18.20;;
57800;SDS011;43627;42.728;23.256;2023-02-28T03:09:35;54.00;;;20.63;;
57800;SDS011;43627;42.728;23.256;2023-02-28T03:12:02;45.38;;;19.27;;
57800;SDS011;43627;42.728;23.256;2023-02-28T03:14:39;49.53;;;19.95;;
57800;SDS011;43627;42.728;23.256;2023-02-28T03:17:26;53.30;;;20.60;;
57800;SDS011;43627;42.728;23.256;2023-02-28T03:20:04;54.50;;;21.08;;
57800;SDS011;43627;42.728;23.256;2023-02-28T03:28:49;56.47;;;19.83;;
57800;SDS011;43627;42.728;23.256;2023-02-28T03:31:06;54.28;;;19.63;;
57800;SDS011;43627;42.728;23.256;2023-02-28T03:33:49;56.90;;;19.85;;
57800;SDS011;43627;42.728;23.256;2023-02-28T03:36:25;61.88;;;20.58;;
57800;SDS011;43627;42.728;23.256;2023-02-28T03:38:58;69.65;;;30.08;;
57800;SDS011;43627;42.728;23.256;2023-02-28T03:44:23;60.60;;;28.23;;
57800;SDS011;43627;42.728;23.256;2023-02-28T03:47:00;64.38;;;29.90;;
57800;SDS011;43627;42.728;23.256;2023-02-28T03:49:41;57.88;;;25.73;;
57800;SDS011;43627;42.728;23.256;2023-02-28T03:52:13;64.22;;;24.15;;
57800;SDS011;43627;42.728;23.256;2023-02-28T03:54:44;56.15;;;26.20;;
57800;SDS011;43627;42.728;23.256;2023-02-28T04:00:11;54.97;;;24.92;;
57800;SDS011;43627;42.728;23.256;2023-02-28T04:02:41;49.28;;;22.17;;
57800;SDS011;43627;42.728;23.256;2023-02-28T04:05:08;40.80;;;19.38;;
57800;SDS011;43627;42.728;23.256;2023-02-28T04:07:35;50.08;;;21.20;;
57800;SDS011;43627;42.728;23.256;2023-02-28T04:10:02;45.08;;;21.00;;
57800;SDS011;43627;42.728;23.256;2023-02-28T04:12:29;44.40;;;20.85;;
57800;SDS011;43627;42.728;23.256;2023-02-28T04:14:56;54.15;;;23.35;;
57800;SDS011;43627;42.728;23.256;2023-02-28T04:17:23;49.35;;;24.10;;
57800;SDS011;43627;42.728;23.256;2023-02-28T04:19:49;69.07;;;31.98;;
57800;SDS011;43627;42.728;23.256;2023-02-28T04:22:16;47.25;;;21.67;;
57800;SDS011;43627;42.728;23.256;2023-02-28T04:24:44;46.70;;;22.20;;
57800;SDS011;43627;42.728;23.256;2023-02-28T04:27:11;53.33;;;21.27;;
57800;SDS011;43627;42.728;23.256;2023-02-28T04:29:37;47.80;;;19.25;;
57800;SDS011;43627;42.728;23.256;2023-02-28T04:32:04;53.63;;;21.35;;
57800;SDS011;43627;42.728;23.256;2023-02-28T04:34:31;53.90;;;23.52;;
57800;SDS011;43627;42.728;23.256;2023-02-28T04:36:59;60.30;;;27.10;;
57800;SDS011;43627;42.728;23.256;2023-02-28T04:39:42;62.72;;;27.00;;
57800;SDS011;43627;42.728;23.256;2023-02-28T04:42:10;73.13;;;30.65;;
57800;SDS011;43627;42.728;23.256;2023-02-28T04:44:37;72.95;;;29.23;;
57800;SDS011;43627;42.728;23.256;2023-02-28T04:47:04;57.55;;;25.70;;
57800;SDS011;43627;42.728;23.256;2023-02-28T04:49:31;65.20;;;27.20;;
57800;SDS011;43627;42.728;23.256;2023-02-28T04:51:58;55.78;;;22.52;;
57800;SDS011;43627;42.728;23.256;2023-02-28T04:54:25;42.90;;;20.05;;
57800;SDS011;43627;42.728;23.256;2023-02-28T04:56:51;45.60;;;19.15;;
57800;SDS011;43627;42.728;23.256;2023-02-28T04:59:18;42.38;;;18.73;;
57800;SDS011;43627;42.728;23.256;2023-02-28T05:01:46;43.80;;;18.83;;
57800;SDS011;43627;42.728;23.256;2023-02-28T05:04:14;60.95;;;20.33;;
57800;SDS011;43627;42.728;23.256;2023-02-28T05:06:41;50.80;;;21.30;;
57800;SDS011;43627;42.728;23.256;2023-02-28T05:09:08;51.47;;;20.52;;
57800;SDS011;43627;42.728;23.256;2023-02-28T05:11:37;44.55;;;20.80;;
57800;SDS011;43627;42.728;23.256;2023-02-28T05:14:06;42.50;;;16.98;;
57800;SDS011;43627;42.728;23.256;2023-02-28T05:16:37;44.75;;;18.25;;
57800;SDS011;43627;42.728;23.256;2023-02-28T05:19:04;42.30;;;18.75;;
57800;SDS011;43627;42.728;23.256;2023-02-28T05:21:32;46.10;;;18.08;;
57800;SDS011;43627;42.728;23.256;2023-02-28T05:24:02;43.88;;;19.17;;
57800;SDS011;43627;42.728;23.256;2023-02-28T05:26:31;45.85;;;19.67;;
57800;SDS011;43627;42.728;23.256;2023-02-28T05:29:01;45.40;;;20.15;;
57800;SDS011;43627;42.728;23.256;2023-02-28T05:31:28;44.80;;;19.67;;
57800;SDS011;43627;42.728;23.256;2023-02-28T05:33:55;41.78;;;20.55;;
57800;SDS011;43627;42.728;23.256;2023-02-28T05:36:22;46.22;;;18.80;;
57800;SDS011;43627;42.728;23.256;2023-02-28T05:38:49;44.65;;;19.73;;
57800;SDS011;43627;42.728;23.256;2023-02-28T05:41:18;55.17;;;27.80;;
57800;SDS011;43627;42.728;23.256;2023-02-28T05:43:46;48.00;;;22.33;;
57800;SDS011;43627;42.728;23.256;2023-02-28T05:46:17;45.13;;;19.50;;
57800;SDS011;43627;42.728;23.256;2023-02-28T05:48:46;47.50;;;20.13;;
57800;SDS011;43627;42.728;23.256;2023-02-28T05:51:14;47.97;;;21.02;;
57800;SDS011;43627;42.728;23.256;2023-02-28T05:53:42;49.33;;;20.05;;
57800;SDS011;43627;42.728;23.256;2023-02-28T05:56:09;54.40;;;20.27;;
57800;SDS011;43627;42.728;23.256;2023-02-28T05:58:36;48.25;;;20.63;;
57800;SDS011;43627;42.728;23.256;2023-02-28T06:03:48;52.13;;;20.95;;
57800;SDS011;43627;42.728;23.256;2023-02-28T06:06:15;55.97;;;21.65;;
57800;SDS011;43627;42.728;23.256;2023-02-28T06:08:42;59.30;;;23.25;;
57800;SDS011;43627;42.728;23.256;2023-02-28T06:11:10;62.90;;;24.48;;
57800;SDS011;43627;42.728;23.256;2023-02-28T06:13:37;62.67;;;22.60;;
57800;SDS011;43627;42.728;23.256;2023-02-28T06:16:05;65.75;;;25.00;;
57800;SDS011;43627;42.728;23.256;2023-02-28T06:18:32;78.65;;;26.55;;
57800;SDS011;43627;42.728;23.256;2023-02-28T06:20:58;87.53;;;31.70;;
57800;SDS011;43627;42.728;23.256;2023-02-28T06:23:25;91.93;;;36.35;;
57800;SDS011;43627;42.728;23.256;2023-02-28T06:25:52;83.78;;;32.03;;
57800;SDS011;43627;42.728;23.256;2023-02-28T06:28:19;77.50;;;28.83;;
57800;SDS011;43627;42.728;23.256;2023-02-28T06:30:46;72.63;;;27.63;;
57800;SDS011;43627;42.728;23.256;2023-02-28T06:33:13;72.60;;;25.38;;
57800;SDS011;43627;42.728;23.256;2023-02-28T06:35:42;73.50;;;27.70;;
57800;SDS011;43627;42.728;23.256;2023-02-28T06:38:10;75.68;;;28.95;;
57800;SDS011;43627;42.728;23.256;2023-02-28T06:40:37;76.45;;;28.83;;
57800;SDS011;43627;42.728;23.256;2023-02-28T06:43:04;74.25;;;29.27;;
57800;SDS011;43627;42.728;23.256;2023-02-28T06:45:31;69.65;;;28.42;;
57800;SDS011;43627;42.728;23.256;2023-02-28T06:47:58;69.07;;;28.02;;
57800;SDS011;43627;42.728;23.256;2023-02-28T06:50:26;64.60;;;27.85;;
57800;SDS011;43627;42.728;23.256;2023-02-28T06:52:55;71.15;;;28.35;;
57800;SDS011;43627;42.728;23.256;2023-02-28T06:55:22;59.75;;;28.10;;
57800;SDS011;43627;42.728;23.256;2023-02-28T06:57:49;68.35;;;29.65;;
57800;SDS011;43627;42.728;23.256;2023-02-28T07:00:16;80.93;;;34.75;;
57800;SDS011;43627;42.728;23.256;2023-02-28T07:02:43;70.35;;;32.08;;
57800;SDS011;43627;42.728;23.256;2023-02-28T07:05:10;76.90;;;33.33;;
57800;SDS011;43627;42.728;23.256;2023-02-28T07:07:37;76.93;;;30.98;;
57800;SDS011;43627;42.728;23.256;2023-02-28T07:10:06;76.43;;;32.38;;
57800;SDS011;43627;42.728;23.256;2023-02-28T07:12:34;75.18;;;31.10;;
57800;SDS011;43627;42.728;23.256;2023-02-28T07:15:03;78.22;;;30.90;;
57800;SDS011;43627;42.728;23.256;2023-02-28T07:17:30;71.68;;;30.52;;
57800;SDS011;43627;42.728;23.256;2023-02-28T07:19:57;88.93;;;33.90;;
57800;SDS011;43627;42.728;23.256;2023-02-28T07:22:24;77.45;;;32.70;;
57800;SDS011;43627;42.728;23.256;2023-02-28T07:24:51;85.95;;;33.20;;
57800;SDS011;43627;42.728;23.256;2023-02-28T07:27:18;82.50;;;33.22;;
57800;SDS011;43627;42.728;23.256;2023-02-28T07:29:50;72.05;;;30.13;;
57800;SDS011;43627;42.728;23.256;2023-02-28T07:32:16;76.93;;;31.73;;
57800;SDS011;43627;42.728;23.256;2023-02-28T07:34:43;75.13;;;32.20;;
57800;SDS011;43627;42.728;23.256;2023-02-28T07:37:10;77.43;;;33.00;;
57800;SDS011;43627;42.728;23.256;2023-02-28T07:39:37;76.40;;;31.60;;
57800;SDS011;43627;42.728;23.256;2023-02-28T07:42:05;70.72;;;30.10;;
57800;SDS011;43627;42.728;23.256;2023-02-28T07:44:32;72.07;;;31.38;;
57800;SDS011;43627;42.728;23.256;2023-02-28T07:46:59;86.30;;;31.45;;
57800;SDS011;43627;42.728;23.256;2023-02-28T07:49:26;74.20;;;32.28;;
57800;SDS011;43627;42.728;23.256;2023-02-28T07:51:53;75.28;;;32.08;;
57800;SDS011;43627;42.728;23.256;2023-02-28T07:54:20;79.63;;;30.80;;
57800;SDS011;43627;42.728;23.256;2023-02-28T07:56:46;75.47;;;30.80;;
57800;SDS011;43627;42.728;23.256;2023-02-28T07:59:13;77.97;;;32.15;;
57800;SDS011;43627;42.728;23.256;2023-02-28T08:01:40;73.72;;;30.63;;
57800;SDS011;43627;42.728;23.256;2023-02-28T08:04:06;73.35;;;30.92;;
57800;SDS011;43627;42.728;23.256;2023-02-28T08:06:33;64.95;;;29.30;;
57800;SDS011;43627;42.728;23.256;2023-02-28T08:09:00;74.72;;;30.90;;
57800;SDS011;43627;42.728;23.256;2023-02-28T08:11:27;75.28;;;31.23;;
57800;SDS011;43627;42.728;23.256;2023-02-28T08:13:54;70.97;;;30.48;;
57800;SDS011;43627;42.728;23.256;2023-02-28T08:16:21;60.22;;;26.90;;
57800;SDS011;43627;42.728;23.256;2023-02-28T08:18:49;64.35;;;28.88;;
57800;SDS011;43627;42.728;23.256;2023-02-28T08:21:17;63.67;;;29.63;;
57800;SDS011;43627;42.728;23.256;2023-02-28T08:23:45;57.42;;;26.73;;
57800;SDS011;43627;42.728;23.256;2023-02-28T08:26:15;61.38;;;26.52;;
57800;SDS011;43627;42.728;23.256;2023-02-28T08:28:43;51.28;;;24.92;;
57800;SDS011;43627;42.728;23.256;2023-02-28T08:31:11;52.95;;;25.45;;
57800;SDS011;43627;42.728;23.256;2023-02-28T08:33:40;57.10;;;27.05;;
57800;SDS011;43627;42.728;23.256;2023-02-28T08:36:08;72.50;;;29.38;;
57800;SDS011;43627;42.728;23.256;2023-02-28T08:38:35;64.38;;;30.30;;
57800;SDS011;43627;42.728;23.256;2023-02-28T08:41:04;69.40;;;28.13;;
57800;SDS011;43627;42.728;23.256;2023-02-28T08:43:33;64.10;;;28.30;;
57800;SDS011;43627;42.728;23.256;2023-02-28T08:46:00;66.07;;;29.23;;
57800;SDS011;43627;42.728;23.256;2023-02-28T08:48:28;64.78;;;29.20;;
57800;SDS011;43627;42.728;23.256;2023-02-28T08:53:32;57.67;;;27.00;;
57800;SDS011;43627;42.728;23.256;2023-02-28T08:55:59;69.45;;;30.58;;
57800;SDS011;43627;42.728;23.256;2023-02-28T08:58:28;64.72;;;30.02;;
57800;SDS011;43627;42.728;23.256;2023-02-28T09:00:55;62.38;;;28.83;;
57800;SDS011;43627;42.728;23.256;2023-02-28T09:03:22;60.83;;;27.48;;
57800;SDS011;43627;42.728;23.256;2023-02-28T09:05:57;65.45;;;29.67;;
57800;SDS011;43627;42.728;23.256;2023-02-28T09:08:26;64.35;;;30.42;;
57800;SDS011;43627;42.728;23.256;2023-02-28T09:10:56;63.42;;;28.85;;
57800;SDS011;43627;42.728;23.256;2023-02-28T09:13:26;65.28;;;29.10;;
57800;SDS011;43627;42.728;23.256;2023-02-28T09:15:54;58.55;;;28.63;;
57800;SDS011;43627;42.728;23.256;2023-02-28T09:18:20;69.53;;;28.88;;
57800;SDS011;43627;42.728;23.256;2023-02-28T09:20:47;59.03;;;28.80;;
57800;SDS011;43627;42.728;23.256;2023-02-28T09:23:14;73.93;;;30.08;;
57800;SDS011;43627;42.728;23.256;2023-02-28T09:25:48;65.07;;;27.88;;
57800;SDS011;43627;42.728;23.256;2023-02-28T09:28:16;63.58;;;30.23;;
57800;SDS011;43627;42.728;23.256;2023-02-28T09:30:47;65.75;;;29.25;;
57800;SDS011;43627;42.728;23.256;2023-02-28T09:33:16;70.90;;;28.92;;
57800;SDS011;43627;42.728;23.256;2023-02-28T09:35:49;59.42;;;30.10;;
57800;SDS011;43627;42.728;23.256;2023-02-28T09:38:16;64.15;;;28.25;;
57800;SDS011;43627;42.728;23.256;2023-02-28T09:40:47;61.00;;;30.70;;
57800;SDS011;43627;42.728;23.256;2023-02-28T09:43:16;54.50;;;25.65;;
57800;SDS011;43627;42.728;23.256;2023-02-28T09:45:52;51.53;;;25.08;;
57800;SDS011;43627;42.728;23.256;2023-02-28T09:48:28;44.88;;;23.40;;
57800;SDS011;43627;42.728;23.256;2023-02-28T09:51:09;49.03;;;22.75;;
57800;SDS011;43627;42.728;23.256;2023-02-28T09:53:47;50.50;;;22.67;;
57800;SDS011;43627;42.728;23.256;2023-02-28T09:56:23;46.05;;;25.08;;
57800;SDS011;43627;42.728;23.256;2023-02-28T09:58:56;50.17;;;22.30;;
57800;SDS011;43627;42.728;23.256;2023-02-28T10:01:32;42.00;;;21.88;;
57800;SDS011;43627;42.728;23.256;2023-02-28T10:04:12;40.40;;;21.00;;
57800;SDS011;43627;42.728;23.256;2023-02-28T10:07:01;44.63;;;21.35;;
57800;SDS011;43627;42.728;23.256;2023-02-28T10:09:33;45.28;;;21.58;;
57800;SDS011;43627;42.728;23.256;2023-02-28T10:12:05;41.75;;;20.77;;
57800;SDS011;43627;42.728;23.256;2023-02-28T10:14:35;40.85;;;20.35;;
57800;SDS011;43627;42.728;23.256;2023-02-28T10:17:10;42.78;;;21.98;;
57800;SDS011;43627;42.728;23.256;2023-02-28T10:19:55;49.95;;;23.52;;
57800;SDS011;43627;42.728;23.256;2023-02-28T10:25:20;47.35;;;22.73;;
57800;SDS011;43627;42.728;23.256;2023-02-28T10:27:50;52.88;;;22.95;;
57800;SDS011;43627;42.728;23.256;2023-02-28T10:30:20;53.30;;;23.17;;
57800;SDS011;43627;42.728;23.256;2023-02-28T10:32:50;47.63;;;23.35;;
57800;SDS011;43627;42.728;23.256;2023-02-28T10:35:21;45.75;;;23.55;;
57800;SDS011;43627;42.728;23.256;2023-02-28T10:37:58;63.92;;;24.02;;
57800;SDS011;43627;42.728;23.256;2023-02-28T10:40:29;47.15;;;22.63;;
57800;SDS011;43627;42.728;23.256;2023-02-28T10:45:31;34.75;;;13.02;;
57800;SDS011;43627;42.728;23.256;2023-02-28T10:48:04;36.42;;;12.32;;
57800;SDS011;43627;42.728;23.256;2023-02-28T11:03:52;30.38;;;12.80;;
57800;SDS011;43627;42.728;23.256;2023-02-28T11:06:20;30.55;;;12.00;;
57800;SDS011;43627;42.728;23.256;2023-02-28T11:08:50;48.47;;;15.00;;
57800;SDS011;43627;42.728;23.256;2023-02-28T11:13:58;29.27;;;10.70;;
57800;SDS011;43627;42.728;23.256;2023-02-28T11:16:34;32.47;;;11.93;;
57800;SDS011;43627;42.728;23.256;2023-02-28T11:19:04;23.88;;;9.82;;
57800;SDS011;43627;42.728;23.256;2023-02-28T11:21:53;29.70;;;12.20;;
57800;SDS011;43627;42.728;23.256;2023-02-28T11:24:33;33.83;;;11.57;;
57800;SDS011;43627;42.728;23.256;2023-02-28T11:27:05;28.52;;;10.27;;
57800;SDS011;43627;42.728;23.256;2023-02-28T11:29:33;37.47;;;13.60;;
57800;SDS011;43627;42.728;23.256;2023-02-28T11:34:30;24.75;;;9.98;;
57800;SDS011;43627;42.728;23.256;2023-02-28T11:36:58;28.60;;;13.05;;
57800;SDS011;43627;42.728;23.256;2023-02-28T11:39:27;28.25;;;11.00;;
57800;SDS011;43627;42.728;23.256;2023-02-28T11:42:01;28.48;;;11.07;;
57800;SDS011;43627;42.728;23.256;2023-02-28T11:51:01;35.70;;;11.25;;
57800;SDS011;43627;42.728;23.256;2023-02-28T11:56:38;33.17;;;11.00;;
57800;SDS011;43627;42.728;23.256;2023-02-28T12:02:25;26.05;;;12.27;;
57800;SDS011;43627;42.728;23.256;2023-02-28T12:04:59;29.58;;;12.10;;
57800;SDS011;43627;42.728;23.256;2023-02-28T12:10:41;27.35;;;10.77;;
57800;SDS011;43627;42.728;23.256;2023-02-28T12:19:19;35.97;;;10.60;;
57800;SDS011;43627;42.728;23.256;2023-02-28T12:22:04;25.17;;;10.73;;
57800;SDS011;43627;42.728;23.256;2023-02-28T12:27:33;27.58;;;10.68;;
57800;SDS011;43627;42.728;23.256;2023-02-28T12:30:08;33.47;;;9.05;;
57800;SDS011;43627;42.728;23.256;2023-02-28T12:32:44;25.02;;;9.32;;
57800;SDS011;43627;42.728;23.256;2023-02-28T12:35:31;25.45;;;9.18;;
57800;SDS011;43627;42.728;23.256;2023-02-28T12:38:20;26.33;;;9.40;;
57800;SDS011;43627;42.728;23.256;2023-02-28T12:43:27;25.48;;;8.95;;
57800;SDS011;43627;42.728;23.256;2023-02-28T12:46:07;21.20;;;8.25;;
57800;SDS011;43627;42.728;23.256;2023-02-28T12:48:48;17.48;;;8.70;;
57800;SDS011;43627;42.728;23.256;2023-02-28T12:51:21;27.42;;;9.43;;
57800;SDS011;43627;42.728;23.256;2023-02-28T12:56:57;20.25;;;8.15;;
57800;SDS011;43627;42.728;23.256;2023-02-28T12:59:45;32.05;;;9.77;;
57800;SDS011;43627;42.728;23.256;2023-02-28T13:10:50;31.73;;;10.52;;
57800;SDS011;43627;42.728;23.256;2023-02-28T13:14:00;18.45;;;9.25;;
57800;SDS011;43627;42.728;23.256;2023-02-28T13:16:51;24.88;;;9.77;;
57800;SDS011;43627;42.728;23.256;2023-02-28T13:25:01;37.15;;;11.93;;
57800;SDS011;43627;42.728;23.256;2023-02-28T13:27:38;26.20;;;10.65;;
57800;SDS011;43627;42.728;23.256;2023-02-28T13:38:36;18.70;;;7.68;;
57800;SDS011;43627;42.728;23.256;2023-02-28T13:49:34;29.77;;;8.68;;
57800;SDS011;43627;42.728;23.256;2023-02-28T13:52:51;22.75;;;8.10;;
57800;SDS011;43627;42.728;23.256;2023-02-28T13:56:19;31.70;;;9.90;;
57800;SDS011;43627;42.728;23.256;2023-02-28T13:59:19;24.00;;;10.30;;
57800;SDS011;43627;42.728;23.256;2023-02-28T14:05:43;22.42;;;7.43;;
57800;SDS011;43627;42.728;23.256;2023-02-28T14:08:15;24.08;;;9.02;;
57800;SDS011;43627;42.728;23.256;2023-02-28T14:10:47;26.67;;;9.43;;
57800;SDS011;43627;42.728;23.256;2023-02-28T14:16:14;30.95;;;8.38;;
57800;SDS011;43627;42.728;23.256;2023-02-28T14:19:05;24.20;;;7.03;;
57800;SDS011;43627;42.728;23.256;2023-02-28T14:21:39;28.17;;;8.80;;
57800;SDS011;43627;42.728;23.256;2023-02-28T14:27:14;27.73;;;8.77;;
57800;SDS011;43627;42.728;23.256;2023-02-28T14:38:39;20.85;;;8.55;;
57800;SDS011;43627;42.728;23.256;2023-02-28T14:41:30;28.60;;;10.57;;
57800;SDS011;43627;42.728;23.256;2023-02-28T14:44:25;30.63;;;9.55;;
57800;SDS011;43627;42.728;23.256;2023-02-28T14:46:57;26.25;;;10.38;;
57800;SDS011;43627;42.728;23.256;2023-02-28T14:49:41;12.65;;;6.22;;
57800;SDS011;43627;42.728;23.256;2023-02-28T14:52:22;29.67;;;10.35;;
57800;SDS011;43627;42.728;23.256;2023-02-28T14:54:54;25.60;;;10.35;;
57800;SDS011;43627;42.728;23.256;2023-02-28T14:57:33;28.85;;;9.77;;
57800;SDS011;43627;42.728;23.256;2023-02-28T15:00:22;21.97;;;9.37;;
57800;SDS011;43627;42.728;23.256;2023-02-28T15:02:52;26.33;;;10.95;;
57800;SDS011;43627;42.728;23.256;2023-02-28T15:05:25;25.83;;;10.63;;
57800;SDS011;43627;42.728;23.256;2023-02-28T15:08:04;27.30;;;10.10;;
57800;SDS011;43627;42.728;23.256;2023-02-28T15:10:51;27.77;;;8.88;;
57800;SDS011;43627;42.728;23.256;2023-02-28T15:13:22;23.85;;;8.55;;
57800;SDS011;43627;42.728;23.256;2023-02-28T15:15:54;28.58;;;9.20;;
57800;SDS011;43627;42.728;23.256;2023-02-28T15:20:59;26.83;;;10.80;;
57800;SDS011;43627;42.728;23.256;2023-02-28T15:23:30;26.30;;;10.02;;
57800;SDS011;43627;42.728;23.256;2023-02-28T15:25:58;27.88;;;9.27;;
57800;SDS011;43627;42.728;23.256;2023-02-28T15:28:27;28.75;;;11.82;;
57800;SDS011;43627;42.728;23.256;2023-02-28T15:31:01;22.17;;;9.40;;
57800;SDS011;43627;42.728;23.256;2023-02-28T15:33:30;22.42;;;11.05;;
57800;SDS011;43627;42.728;23.256;2023-02-28T15:36:05;28.92;;;10.60;;
57800;SDS011;43627;42.728;23.256;2023-02-28T15:38:38;21.42;;;7.07;;
57800;SDS011;43627;42.728;23.256;2023-02-28T15:41:20;25.20;;;13.35;;
57800;SDS011;43627;42.728;23.256;2023-02-28T15:46:54;30.98;;;14.82;;
57800;SDS011;43627;42.728;23.256;2023-02-28T15:49:56;15.18;;;7.85;;
57800;SDS011;43627;42.728;23.256;2023-02-28T15:52:41;16.38;;;7.30;;
57800;SDS011;43627;42.728;23.256;2023-02-28T15:57:45;13.55;;;5.80;;
57800;SDS011;43627;42.728;23.256;2023-02-28T16:00:19;23.05;;;7.22;;
57800;SDS011;43627;42.728;23.256;2023-02-28T16:05:25;16.15;;;7.95;;
57800;SDS011;43627;42.728;23.256;2023-02-28T16:08:15;12.60;;;7.38;;
57800;SDS011;43627;42.728;23.256;2023-02-28T16:10:42;13.07;;;7.00;;
57800;SDS011;43627;42.728;23.256;2023-02-28T16:13:09;20.08;;;6.72;;
57800;SDS011;43627;42.728;23.256;2023-02-28T16:15:41;8.38;;;4.32;;
57800;SDS011;43627;42.728;23.256;2023-02-28T16:18:12;14.75;;;5.25;;
57800;SDS011;43627;42.728;23.256;2023-02-28T16:20:40;16.45;;;5.72;;
57800;SDS011;43627;42.728;23.256;2023-02-28T16:23:06;19.30;;;9.93;;
57800;SDS011;43627;42.728;23.256;2023-02-28T16:25:36;13.73;;;6.00;;
57800;SDS011;43627;42.728;23.256;2023-02-28T16:28:06;21.40;;;7.72;;
57800;SDS011;43627;42.728;23.256;2023-02-28T16:30:46;17.52;;;6.65;;
57800;SDS011;43627;42.728;23.256;2023-02-28T16:33:13;32.03;;;12.85;;
57800;SDS011;43627;42.728;23.256;2023-02-28T16:35:40;22.90;;;13.18;;
57800;SDS011;43627;42.728;23.256;2023-02-28T16:38:07;20.13;;;7.78;;
57800;SDS011;43627;42.728;23.256;2023-02-28T16:40:34;9.43;;;4.68;;
57800;SDS011;43627;42.728;23.256;2023-02-28T16:43:05;18.38;;;6.38;;
57800;SDS011;43627;42.728;23.256;2023-02-28T16:45:34;9.88;;;3.67;;
57800;SDS011;43627;42.728;23.256;2023-02-28T16:48:01;10.85;;;3.47;;
57800;SDS011;43627;42.728;23.256;2023-02-28T16:50:28;16.98;;;7.82;;
57800;SDS011;43627;42.728;23.256;2023-02-28T16:52:56;16.92;;;6.13;;
57800;SDS011;43627;42.728;23.256;2023-02-28T16:55:23;8.88;;;3.70;;
57800;SDS011;43627;42.728;23.256;2023-02-28T16:57:52;15.30;;;6.22;;
57800;SDS011;43627;42.728;23.256;2023-02-28T17:00:21;11.10;;;5.28;;
57800;SDS011;43627;42.728;23.256;2023-02-28T17:02:49;16.50;;;8.30;;
57800;SDS011;43627;42.728;23.256;2023-02-28T17:05:16;11.88;;;6.53;;
57800;SDS011;43627;42.728;23.256;2023-02-28T17:07:45;20.42;;;7.18;;
57800;SDS011;43627;42.728;23.256;2023-02-28T17:10:16;15.15;;;6.85;;
57800;SDS011;43627;42.728;23.256;2023-02-28T17:12:45;21.40;;;7.85;;